sensor_id;sensor_type;location;lat;lon;timestamp;P1;durP1;ratioP1;P2;durP2;ratioP2
37873;SDS011;23709;48.078;11.684;2022-10-31T00:01:26;22.42;;;9.88;;
37873;SDS011;23709;48.078;11.684;2022-10-31T00:04:04;24.55;;;9.25;;
37873;SDS011;23709;48.078;11.684;2022-10-31T00:06:37;24.92;;;10.32;;
37873;SDS011;23709;48.078;11.684;2022-10-31T00:09:09;21.30;;;8.15;;
37873;SDS011;23709;48.078;11.684;2022-10-31T00:11:42;19.63;;;8.57;;
37873;SDS011;23709;48.078;11.684;2022-10-31T00:14:14;18.88;;;9.38;;
37873;SDS011;23709;48.078;11.684;2022-10-31T00:16:46;22.58;;;8.80;;
37873;SDS011;23709;48.078;11.684;2022-10-31T00:19:18;23.67;;;9.95;;
37873;SDS011;23709;48.078;11.684;2022-10-31T00:21:51;19.90;;;8.98;;
37873;SDS011;23709;48.078;11.684;2022-10-31T00:24:23;20.15;;;8.40;;
37873;SDS011;23709;48.078;11.684;2022-10-31T00:26:55;17.65;;;8.70;;
37873;SDS011;23709;48.078;11.684;2022-10-31T00:29:27;18.08;;;8.45;;
37873;SDS011;23709;48.078;11.684;2022-10-31T00:31:59;18.08;;;7.80;;
37873;SDS011;23709;48.078;11.684;2022-10-31T00:34:32;20.35;;;8.05;;
37873;SDS011;23709;48.078;11.684;2022-10-31T00:37:04;22.75;;;8.25;;
37873;SDS011;23709;48.078;11.684;2022-10-31T00:39:36;18.55;;;8.15;;
37873;SDS011;23709;48.078;11.684;2022-10-31T00:42:08;18.42;;;7.82;;
37873;SDS011;23709;48.078;11.684;2022-10-31T00:44:40;17.05;;;8.07;;
37873;SDS011;23709;48.078;11.684;2022-10-31T00:47:12;18.30;;;7.25;;
37873;SDS011;23709;48.078;11.684;2022-10-31T00:49:44;19.42;;;7.47;;
37873;SDS011;23709;48.078;11.684;2022-10-31T00:52:16;21.58;;;8.23;;
37873;SDS011;23709;48.078;11.684;2022-10-31T00:54:48;20.58;;;8.02;;
37873;SDS011;23709;48.078;11.684;2022-10-31T00:57:20;17.60;;;7.15;;
37873;SDS011;23709;48.078;11.684;2022-10-31T00:59:53;20.95;;;8.48;;
37873;SDS011;23709;48.078;11.684;2022-10-31T01:02:25;19.13;;;8.50;;
37873;SDS011;23709;48.078;11.684;2022-10-31T01:04:57;23.65;;;7.60;;
37873;SDS011;23709;48.078;11.684;2022-10-31T01:07:29;15.60;;;7.13;;
37873;SDS011;23709;48.078;11.684;2022-10-31T01:10:01;17.35;;;7.35;;
37873;SDS011;23709;48.078;11.684;2022-10-31T01:12:42;16.98;;;7.00;;
37873;SDS011;23709;48.078;11.684;2022-10-31T01:15:17;23.65;;;7.30;;
37873;SDS011;23709;48.078;11.684;2022-10-31T01:17:51;19.58;;;7.82;;
37873;SDS011;23709;48.078;11.684;2022-10-31T01:20:23;21.40;;;7.30;;
37873;SDS011;23709;48.078;11.684;2022-10-31T01:22:55;25.00;;;7.70;;
37873;SDS011;23709;48.078;11.684;2022-10-31T01:25:28;13.17;;;7.00;;
37873;SDS011;23709;48.078;11.684;2022-10-31T01:28:00;16.77;;;7.10;;
37873;SDS011;23709;48.078;11.684;2022-10-31T01:30:32;21.10;;;6.90;;
37873;SDS011;23709;48.078;11.684;2022-10-31T01:33:04;15.18;;;7.13;;
37873;SDS011;23709;48.078;11.684;2022-10-31T01:35:36;13.48;;;6.10;;
37873;SDS011;23709;48.078;11.684;2022-10-31T01:38:08;13.48;;;5.97;;
37873;SDS011;23709;48.078;11.684;2022-10-31T01:40:41;18.45;;;6.00;;
37873;SDS011;23709;48.078;11.684;2022-10-31T01:43:13;15.85;;;6.13;;
37873;SDS011;23709;48.078;11.684;2022-10-31T01:45:50;17.65;;;6.45;;
37873;SDS011;23709;48.078;11.684;2022-10-31T01:48:25;14.48;;;5.95;;
37873;SDS011;23709;48.078;11.684;2022-10-31T01:50:59;20.40;;;6.25;;
37873;SDS011;23709;48.078;11.684;2022-10-31T01:53:31;15.93;;;5.80;;
37873;SDS011;23709;48.078;11.684;2022-10-31T01:56:04;15.32;;;7.22;;
37873;SDS011;23709;48.078;11.684;2022-10-31T01:58:37;21.92;;;6.90;;
37873;SDS011;23709;48.078;11.684;2022-10-31T02:01:10;17.90;;;6.32;;
37873;SDS011;23709;48.078;11.684;2022-10-31T02:03:44;23.50;;;7.25;;
37873;SDS011;23709;48.078;11.684;2022-10-31T02:06:22;16.55;;;6.40;;
37873;SDS011;23709;48.078;11.684;2022-10-31T02:09:03;19.27;;;5.88;;
37873;SDS011;23709;48.078;11.684;2022-10-31T02:11:36;17.80;;;6.03;;
37873;SDS011;23709;48.078;11.684;2022-10-31T02:14:09;13.48;;;5.85;;
37873;SDS011;23709;48.078;11.684;2022-10-31T02:16:41;15.75;;;6.53;;
37873;SDS011;23709;48.078;11.684;2022-10-31T02:19:14;11.60;;;5.57;;
37873;SDS011;23709;48.078;11.684;2022-10-31T02:21:56;15.18;;;5.82;;
37873;SDS011;23709;48.078;11.684;2022-10-31T02:24:40;15.93;;;6.32;;
37873;SDS011;23709;48.078;11.684;2022-10-31T02:30:09;16.60;;;5.82;;
37873;SDS011;23709;48.078;11.684;2022-10-31T02:32:54;22.95;;;6.50;;
37873;SDS011;23709;48.078;11.684;2022-10-31T02:36:12;15.63;;;6.03;;
37873;SDS011;23709;48.078;11.684;2022-10-31T02:39:11;13.68;;;5.35;;
37873;SDS011;23709;48.078;11.684;2022-10-31T02:42:01;16.48;;;6.43;;
37873;SDS011;23709;48.078;11.684;2022-10-31T02:47:28;11.07;;;5.75;;
37873;SDS011;23709;48.078;11.684;2022-10-31T02:50:23;15.00;;;5.88;;
37873;SDS011;23709;48.078;11.684;2022-10-31T02:53:00;16.95;;;5.75;;
37873;SDS011;23709;48.078;11.684;2022-10-31T02:58:14;16.67;;;5.43;;
37873;SDS011;23709;48.078;11.684;2022-10-31T03:11:37;15.57;;;5.43;;
37873;SDS011;23709;48.078;11.684;2022-10-31T03:14:23;14.40;;;5.88;;
37873;SDS011;23709;48.078;11.684;2022-10-31T03:17:08;12.63;;;5.57;;
37873;SDS011;23709;48.078;11.684;2022-10-31T03:19:47;15.88;;;5.30;;
37873;SDS011;23709;48.078;11.684;2022-10-31T03:22:25;16.83;;;5.75;;
37873;SDS011;23709;48.078;11.684;2022-10-31T03:25:03;18.33;;;5.95;;
37873;SDS011;23709;48.078;11.684;2022-10-31T03:27:37;14.52;;;6.07;;
37873;SDS011;23709;48.078;11.684;2022-10-31T03:30:11;18.88;;;5.47;;
37873;SDS011;23709;48.078;11.684;2022-10-31T03:33:05;18.13;;;5.75;;
37873;SDS011;23709;48.078;11.684;2022-10-31T03:35:44;13.63;;;4.88;;
37873;SDS011;23709;48.078;11.684;2022-10-31T03:38:18;13.77;;;6.10;;
37873;SDS011;23709;48.078;11.684;2022-10-31T03:40:51;13.52;;;6.00;;
37873;SDS011;23709;48.078;11.684;2022-10-31T03:43:26;12.90;;;5.63;;
37873;SDS011;23709;48.078;11.684;2022-10-31T03:46:03;18.88;;;5.72;;
37873;SDS011;23709;48.078;11.684;2022-10-31T03:48:36;19.25;;;6.55;;
37873;SDS011;23709;48.078;11.684;2022-10-31T03:54:03;15.70;;;6.10;;
37873;SDS011;23709;48.078;11.684;2022-10-31T03:56:53;20.55;;;6.38;;
37873;SDS011;23709;48.078;11.684;2022-10-31T03:59:30;13.38;;;5.25;;
37873;SDS011;23709;48.078;11.684;2022-10-31T04:02:07;10.27;;;5.32;;
37873;SDS011;23709;48.078;11.684;2022-10-31T04:04:46;15.32;;;6.20;;
37873;SDS011;23709;48.078;11.684;2022-10-31T04:07:19;15.18;;;5.40;;
37873;SDS011;23709;48.078;11.684;2022-10-31T04:09:54;14.35;;;5.63;;
37873;SDS011;23709;48.078;11.684;2022-10-31T04:12:30;17.15;;;5.65;;
37873;SDS011;23709;48.078;11.684;2022-10-31T04:15:14;12.90;;;5.53;;
37873;SDS011;23709;48.078;11.684;2022-10-31T04:17:47;11.43;;;5.45;;
37873;SDS011;23709;48.078;11.684;2022-10-31T04:20:29;18.30;;;4.80;;
37873;SDS011;23709;48.078;11.684;2022-10-31T04:23:08;12.07;;;5.93;;
37873;SDS011;23709;48.078;11.684;2022-10-31T04:25:52;12.18;;;5.30;;
37873;SDS011;23709;48.078;11.684;2022-10-31T04:28:24;12.18;;;5.95;;
37873;SDS011;23709;48.078;11.684;2022-10-31T04:30:56;8.60;;;5.03;;
37873;SDS011;23709;48.078;11.684;2022-10-31T04:33:28;14.73;;;5.32;;
37873;SDS011;23709;48.078;11.684;2022-10-31T04:36:01;12.60;;;5.53;;
37873;SDS011;23709;48.078;11.684;2022-10-31T04:38:33;12.98;;;4.72;;
37873;SDS011;23709;48.078;11.684;2022-10-31T04:41:11;11.15;;;5.22;;
37873;SDS011;23709;48.078;11.684;2022-10-31T04:43:54;10.20;;;5.35;;
37873;SDS011;23709;48.078;11.684;2022-10-31T04:46:26;11.95;;;5.38;;
37873;SDS011;23709;48.078;11.684;2022-10-31T04:51:31;14.13;;;5.43;;
37873;SDS011;23709;48.078;11.684;2022-10-31T04:54:04;18.52;;;5.30;;
37873;SDS011;23709;48.078;11.684;2022-10-31T04:56:56;14.10;;;5.88;;
37873;SDS011;23709;48.078;11.684;2022-10-31T04:59:28;10.80;;;5.25;;
37873;SDS011;23709;48.078;11.684;2022-10-31T05:02:02;18.33;;;6.07;;
37873;SDS011;23709;48.078;11.684;2022-10-31T05:04:48;13.10;;;6.30;;
37873;SDS011;23709;48.078;11.684;2022-10-31T05:07:21;15.57;;;6.28;;
37873;SDS011;23709;48.078;11.684;2022-10-31T05:09:53;12.77;;;5.32;;
37873;SDS011;23709;48.078;11.684;2022-10-31T05:12:25;12.20;;;5.20;;
37873;SDS011;23709;48.078;11.684;2022-10-31T05:15:21;16.20;;;4.78;;
37873;SDS011;23709;48.078;11.684;2022-10-31T05:18:13;13.10;;;6.22;;
37873;SDS011;23709;48.078;11.684;2022-10-31T05:21:13;15.27;;;5.55;;
37873;SDS011;23709;48.078;11.684;2022-10-31T05:23:53;16.08;;;5.53;;
37873;SDS011;23709;48.078;11.684;2022-10-31T05:26:27;19.70;;;5.97;;
37873;SDS011;23709;48.078;11.684;2022-10-31T05:29:00;17.08;;;5.57;;
37873;SDS011;23709;48.078;11.684;2022-10-31T05:31:32;13.83;;;6.23;;
37873;SDS011;23709;48.078;11.684;2022-10-31T05:34:06;14.07;;;6.40;;
37873;SDS011;23709;48.078;11.684;2022-10-31T05:36:56;13.02;;;6.43;;
37873;SDS011;23709;48.078;11.684;2022-10-31T05:39:29;17.48;;;6.75;;
37873;SDS011;23709;48.078;11.684;2022-10-31T05:42:05;14.48;;;6.53;;
37873;SDS011;23709;48.078;11.684;2022-10-31T05:44:37;19.40;;;7.45;;
37873;SDS011;23709;48.078;11.684;2022-10-31T05:47:36;12.68;;;6.43;;
37873;SDS011;23709;48.078;11.684;2022-10-31T05:50:44;13.25;;;6.75;;
37873;SDS011;23709;48.078;11.684;2022-10-31T05:53:16;21.15;;;6.68;;
37873;SDS011;23709;48.078;11.684;2022-10-31T05:55:49;18.47;;;7.10;;
37873;SDS011;23709;48.078;11.684;2022-10-31T05:58:23;13.45;;;6.20;;
37873;SDS011;23709;48.078;11.684;2022-10-31T06:01:08;12.95;;;6.80;;
37873;SDS011;23709;48.078;11.684;2022-10-31T06:03:41;12.98;;;6.13;;
37873;SDS011;23709;48.078;11.684;2022-10-31T06:06:14;13.65;;;6.43;;
37873;SDS011;23709;48.078;11.684;2022-10-31T06:08:46;12.70;;;6.18;;
37873;SDS011;23709;48.078;11.684;2022-10-31T06:11:22;11.45;;;5.20;;
37873;SDS011;23709;48.078;11.684;2022-10-31T06:14:03;11.43;;;5.32;;
37873;SDS011;23709;48.078;11.684;2022-10-31T06:16:57;15.20;;;6.35;;
37873;SDS011;23709;48.078;11.684;2022-10-31T06:19:48;20.08;;;5.40;;
37873;SDS011;23709;48.078;11.684;2022-10-31T06:22:49;15.65;;;6.20;;
37873;SDS011;23709;48.078;11.684;2022-10-31T06:25:21;12.48;;;6.75;;
37873;SDS011;23709;48.078;11.684;2022-10-31T06:27:54;15.20;;;7.25;;
37873;SDS011;23709;48.078;11.684;2022-10-31T06:30:30;15.55;;;5.90;;
37873;SDS011;23709;48.078;11.684;2022-10-31T06:33:05;13.10;;;5.88;;
37873;SDS011;23709;48.078;11.684;2022-10-31T06:35:45;15.65;;;6.57;;
37873;SDS011;23709;48.078;11.684;2022-10-31T06:38:19;18.45;;;5.85;;
37873;SDS011;23709;48.078;11.684;2022-10-31T06:40:52;13.75;;;6.85;;
37873;SDS011;23709;48.078;11.684;2022-10-31T06:43:26;15.57;;;5.80;;
37873;SDS011;23709;48.078;11.684;2022-10-31T06:46:21;19.70;;;6.78;;
37873;SDS011;23709;48.078;11.684;2022-10-31T06:49:17;18.55;;;6.55;;
37873;SDS011;23709;48.078;11.684;2022-10-31T06:51:54;16.50;;;6.35;;
37873;SDS011;23709;48.078;11.684;2022-10-31T06:54:26;19.20;;;6.43;;
37873;SDS011;23709;48.078;11.684;2022-10-31T06:56:59;14.30;;;6.13;;
37873;SDS011;23709;48.078;11.684;2022-10-31T06:59:32;20.73;;;7.65;;
37873;SDS011;23709;48.078;11.684;2022-10-31T07:02:10;21.05;;;6.78;;
37873;SDS011;23709;48.078;11.684;2022-10-31T07:04:45;13.27;;;5.85;;
37873;SDS011;23709;48.078;11.684;2022-10-31T07:09:54;16.38;;;6.47;;
37873;SDS011;23709;48.078;11.684;2022-10-31T07:12:41;16.65;;;6.10;;
37873;SDS011;23709;48.078;11.684;2022-10-31T07:15:13;14.15;;;6.10;;
37873;SDS011;23709;48.078;11.684;2022-10-31T07:17:47;18.55;;;7.20;;
37873;SDS011;23709;48.078;11.684;2022-10-31T07:20:19;11.95;;;5.78;;
37873;SDS011;23709;48.078;11.684;2022-10-31T07:22:52;13.33;;;5.90;;
37873;SDS011;23709;48.078;11.684;2022-10-31T07:25:24;11.43;;;5.75;;
37873;SDS011;23709;48.078;11.684;2022-10-31T07:28:16;19.27;;;7.50;;
37873;SDS011;23709;48.078;11.684;2022-10-31T07:30:52;11.27;;;5.13;;
37873;SDS011;23709;48.078;11.684;2022-10-31T07:33:26;18.67;;;6.32;;
37873;SDS011;23709;48.078;11.684;2022-10-31T07:36:17;16.33;;;5.82;;
37873;SDS011;23709;48.078;11.684;2022-10-31T07:38:51;20.10;;;5.50;;
37873;SDS011;23709;48.078;11.684;2022-10-31T07:41:23;12.90;;;5.43;;
37873;SDS011;23709;48.078;11.684;2022-10-31T07:43:56;14.70;;;5.47;;
37873;SDS011;23709;48.078;11.684;2022-10-31T07:46:47;13.23;;;5.22;;
37873;SDS011;23709;48.078;11.684;2022-10-31T07:49:28;13.80;;;5.47;;
37873;SDS011;23709;48.078;11.684;2022-10-31T07:52:19;17.95;;;5.32;;
37873;SDS011;23709;48.078;11.684;2022-10-31T07:55:09;17.92;;;5.57;;
37873;SDS011;23709;48.078;11.684;2022-10-31T07:57:42;15.75;;;5.70;;
37873;SDS011;23709;48.078;11.684;2022-10-31T08:00:15;15.17;;;5.90;;
37873;SDS011;23709;48.078;11.684;2022-10-31T08:02:47;22.63;;;5.50;;
37873;SDS011;23709;48.078;11.684;2022-10-31T08:05:37;13.13;;;5.50;;
37873;SDS011;23709;48.078;11.684;2022-10-31T08:08:46;10.30;;;5.22;;
37873;SDS011;23709;48.078;11.684;2022-10-31T08:11:18;21.13;;;8.35;;
37873;SDS011;23709;48.078;11.684;2022-10-31T08:13:51;22.38;;;7.00;;
37873;SDS011;23709;48.078;11.684;2022-10-31T08:16:24;16.20;;;6.18;;
37873;SDS011;23709;48.078;11.684;2022-10-31T08:19:03;12.68;;;5.85;;
37873;SDS011;23709;48.078;11.684;2022-10-31T08:21:41;14.05;;;6.07;;
37873;SDS011;23709;48.078;11.684;2022-10-31T08:24:13;13.70;;;5.82;;
37873;SDS011;23709;48.078;11.684;2022-10-31T08:26:46;23.88;;;6.70;;
37873;SDS011;23709;48.078;11.684;2022-10-31T08:29:18;19.00;;;5.85;;
37873;SDS011;23709;48.078;11.684;2022-10-31T08:31:51;19.33;;;6.17;;
37873;SDS011;23709;48.078;11.684;2022-10-31T08:34:42;16.13;;;6.72;;
37873;SDS011;23709;48.078;11.684;2022-10-31T08:37:37;24.35;;;7.95;;
37873;SDS011;23709;48.078;11.684;2022-10-31T08:40:10;30.70;;;9.02;;
37873;SDS011;23709;48.078;11.684;2022-10-31T08:42:44;21.92;;;7.70;;
37873;SDS011;23709;48.078;11.684;2022-10-31T08:45:16;21.95;;;7.57;;
37873;SDS011;23709;48.078;11.684;2022-10-31T08:47:48;28.52;;;8.90;;
37873;SDS011;23709;48.078;11.684;2022-10-31T08:50:21;21.60;;;8.10;;
37873;SDS011;23709;48.078;11.684;2022-10-31T08:52:53;25.90;;;8.70;;
37873;SDS011;23709;48.078;11.684;2022-10-31T08:55:37;23.35;;;8.90;;
37873;SDS011;23709;48.078;11.684;2022-10-31T08:58:26;15.23;;;8.20;;
37873;SDS011;23709;48.078;11.684;2022-10-31T09:01:02;22.67;;;8.43;;
37873;SDS011;23709;48.078;11.684;2022-10-31T09:03:35;21.45;;;9.27;;
37873;SDS011;23709;48.078;11.684;2022-10-31T09:06:08;26.15;;;8.82;;
37873;SDS011;23709;48.078;11.684;2022-10-31T09:08:41;17.33;;;8.52;;
37873;SDS011;23709;48.078;11.684;2022-10-31T09:11:14;14.95;;;8.15;;
37873;SDS011;23709;48.078;11.684;2022-10-31T09:14:05;20.70;;;7.53;;
37873;SDS011;23709;48.078;11.684;2022-10-31T09:16:57;19.27;;;6.88;;
37873;SDS011;23709;48.078;11.684;2022-10-31T09:19:44;15.60;;;6.53;;
37873;SDS011;23709;48.078;11.684;2022-10-31T09:22:16;17.55;;;6.65;;
37873;SDS011;23709;48.078;11.684;2022-10-31T09:24:48;16.95;;;6.50;;
37873;SDS011;23709;48.078;11.684;2022-10-31T09:27:20;15.05;;;5.65;;
37873;SDS011;23709;48.078;11.684;2022-10-31T09:29:52;15.85;;;6.60;;
37873;SDS011;23709;48.078;11.684;2022-10-31T09:32:24;20.60;;;7.15;;
37873;SDS011;23709;48.078;11.684;2022-10-31T09:34:56;17.85;;;7.15;;
37873;SDS011;23709;48.078;11.684;2022-10-31T09:37:29;19.13;;;7.13;;
37873;SDS011;23709;48.078;11.684;2022-10-31T09:40:01;21.63;;;5.63;;
37873;SDS011;23709;48.078;11.684;2022-10-31T09:45:26;14.52;;;5.03;;
37873;SDS011;23709;48.078;11.684;2022-10-31T09:48:23;9.40;;;5.03;;
37873;SDS011;23709;48.078;11.684;2022-10-31T09:51:17;13.05;;;4.28;;
37873;SDS011;23709;48.078;11.684;2022-10-31T09:54:45;15.60;;;3.95;;
37873;SDS011;23709;48.078;11.684;2022-10-31T09:57:25;15.38;;;4.70;;
37873;SDS011;23709;48.078;11.684;2022-10-31T10:00:03;18.00;;;4.10;;
37873;SDS011;23709;48.078;11.684;2022-10-31T10:02:46;16.43;;;3.97;;
37873;SDS011;23709;48.078;11.684;2022-10-31T10:05:24;12.85;;;3.95;;
37873;SDS011;23709;48.078;11.684;2022-10-31T10:08:10;11.57;;;4.03;;
37873;SDS011;23709;48.078;11.684;2022-10-31T10:17:21;16.38;;;4.88;;
37873;SDS011;23709;48.078;11.684;2022-10-31T10:20:24;17.17;;;4.68;;
37873;SDS011;23709;48.078;11.684;2022-10-31T10:28:45;7.07;;;3.95;;
37873;SDS011;23709;48.078;11.684;2022-10-31T10:31:32;12.05;;;4.55;;
37873;SDS011;23709;48.078;11.684;2022-10-31T10:34:14;10.88;;;4.60;;
37873;SDS011;23709;48.078;11.684;2022-10-31T10:37:04;17.67;;;4.45;;
37873;SDS011;23709;48.078;11.684;2022-10-31T10:39:50;19.88;;;4.05;;
37873;SDS011;23709;48.078;11.684;2022-10-31T10:42:26;11.25;;;4.20;;
37873;SDS011;23709;48.078;11.684;2022-10-31T10:45:18;17.98;;;5.35;;
37873;SDS011;23709;48.078;11.684;2022-10-31T10:48:13;13.88;;;4.50;;
37873;SDS011;23709;48.078;11.684;2022-10-31T10:50:48;15.18;;;4.40;;
37873;SDS011;23709;48.078;11.684;2022-10-31T10:58:45;10.40;;;4.80;;
37873;SDS011;23709;48.078;11.684;2022-10-31T11:01:17;16.35;;;4.40;;
37873;SDS011;23709;48.078;11.684;2022-10-31T11:03:49;17.08;;;4.57;;
37873;SDS011;23709;48.078;11.684;2022-10-31T11:06:22;12.67;;;4.20;;
37873;SDS011;23709;48.078;11.684;2022-10-31T11:08:58;14.20;;;4.43;;
37873;SDS011;23709;48.078;11.684;2022-10-31T11:11:41;10.53;;;4.17;;
37873;SDS011;23709;48.078;11.684;2022-10-31T11:14:15;19.10;;;5.50;;
37873;SDS011;23709;48.078;11.684;2022-10-31T11:16:52;13.75;;;5.10;;
37873;SDS011;23709;48.078;11.684;2022-10-31T11:19:45;12.45;;;4.43;;
37873;SDS011;23709;48.078;11.684;2022-10-31T11:22:17;18.40;;;5.35;;
37873;SDS011;23709;48.078;11.684;2022-10-31T11:24:49;11.23;;;4.57;;
37873;SDS011;23709;48.078;11.684;2022-10-31T11:27:23;21.77;;;4.80;;
37873;SDS011;23709;48.078;11.684;2022-10-31T11:30:04;17.48;;;4.85;;
37873;SDS011;23709;48.078;11.684;2022-10-31T11:32:37;18.73;;;5.25;;
37873;SDS011;23709;48.078;11.684;2022-10-31T11:35:20;21.13;;;4.38;;
37873;SDS011;23709;48.078;11.684;2022-10-31T11:37:55;13.65;;;4.50;;
37873;SDS011;23709;48.078;11.684;2022-10-31T11:40:30;14.45;;;4.55;;
37873;SDS011;23709;48.078;11.684;2022-10-31T11:43:03;14.07;;;5.47;;
37873;SDS011;23709;48.078;11.684;2022-10-31T11:45:35;14.70;;;5.30;;
37873;SDS011;23709;48.078;11.684;2022-10-31T11:48:18;22.02;;;5.35;;
37873;SDS011;23709;48.078;11.684;2022-10-31T11:50:57;16.23;;;5.13;;
37873;SDS011;23709;48.078;11.684;2022-10-31T11:53:30;17.13;;;4.85;;
37873;SDS011;23709;48.078;11.684;2022-10-31T11:56:10;15.00;;;4.43;;
37873;SDS011;23709;48.078;11.684;2022-10-31T11:58:54;15.32;;;4.55;;
37873;SDS011;23709;48.078;11.684;2022-10-31T12:01:39;17.77;;;5.38;;
37873;SDS011;23709;48.078;11.684;2022-10-31T12:04:15;20.65;;;5.97;;
37873;SDS011;23709;48.078;11.684;2022-10-31T12:06:50;11.52;;;5.38;;
37873;SDS011;23709;48.078;11.684;2022-10-31T12:09:28;16.15;;;4.43;;
37873;SDS011;23709;48.078;11.684;2022-10-31T12:22:36;15.18;;;5.57;;
37873;SDS011;23709;48.078;11.684;2022-10-31T12:34:19;13.32;;;5.05;;
37873;SDS011;23709;48.078;11.684;2022-10-31T12:54:25;20.55;;;5.13;;
37873;SDS011;23709;48.078;11.684;2022-10-31T12:59:44;15.50;;;5.50;;
37873;SDS011;23709;48.078;11.684;2022-10-31T13:02:24;18.27;;;5.25;;
37873;SDS011;23709;48.078;11.684;2022-10-31T13:08:07;16.83;;;5.72;;
37873;SDS011;23709;48.078;11.684;2022-10-31T13:11:40;23.98;;;5.97;;
37873;SDS011;23709;48.078;11.684;2022-10-31T13:16:43;16.23;;;5.75;;
37873;SDS011;23709;48.078;11.684;2022-10-31T13:19:20;18.90;;;5.28;;
37873;SDS011;23709;48.078;11.684;2022-10-31T13:22:07;18.38;;;6.05;;
37873;SDS011;23709;48.078;11.684;2022-10-31T13:27:49;19.77;;;5.15;;
37873;SDS011;23709;48.078;11.684;2022-10-31T13:30:33;23.63;;;5.25;;
37873;SDS011;23709;48.078;11.684;2022-10-31T13:33:14;16.88;;;5.50;;
37873;SDS011;23709;48.078;11.684;2022-10-31T13:35:58;13.18;;;5.43;;
37873;SDS011;23709;48.078;11.684;2022-10-31T13:38:54;12.40;;;5.80;;
37873;SDS011;23709;48.078;11.684;2022-10-31T13:44:28;13.77;;;5.53;;
37873;SDS011;23709;48.078;11.684;2022-10-31T13:50:23;22.83;;;6.70;;
37873;SDS011;23709;48.078;11.684;2022-10-31T13:53:10;17.40;;;5.38;;
37873;SDS011;23709;48.078;11.684;2022-10-31T13:55:50;17.63;;;5.63;;
37873;SDS011;23709;48.078;11.684;2022-10-31T13:58:40;17.77;;;6.07;;
37873;SDS011;23709;48.078;11.684;2022-10-31T14:01:27;16.02;;;5.53;;
37873;SDS011;23709;48.078;11.684;2022-10-31T14:04:06;21.33;;;5.90;;
37873;SDS011;23709;48.078;11.684;2022-10-31T14:06:58;17.60;;;5.80;;
37873;SDS011;23709;48.078;11.684;2022-10-31T14:15:24;26.35;;;8.43;;
37873;SDS011;23709;48.078;11.684;2022-10-31T14:18:03;17.50;;;7.20;;
37873;SDS011;23709;48.078;11.684;2022-10-31T14:20:44;17.38;;;6.28;;
37873;SDS011;23709;48.078;11.684;2022-10-31T14:23:34;18.90;;;7.63;;
37873;SDS011;23709;48.078;11.684;2022-10-31T14:28:58;21.90;;;7.03;;
37873;SDS011;23709;48.078;11.684;2022-10-31T14:34:27;15.40;;;5.95;;
37873;SDS011;23709;48.078;11.684;2022-10-31T14:37:18;23.38;;;7.05;;
37873;SDS011;23709;48.078;11.684;2022-10-31T14:51:56;15.55;;;6.93;;
37873;SDS011;23709;48.078;11.684;2022-10-31T14:54:33;24.20;;;7.72;;
37873;SDS011;23709;48.078;11.684;2022-10-31T14:57:13;25.48;;;7.03;;
37873;SDS011;23709;48.078;11.684;2022-10-31T14:59:51;21.73;;;7.28;;
37873;SDS011;23709;48.078;11.684;2022-10-31T15:02:47;21.65;;;7.18;;
37873;SDS011;23709;48.078;11.684;2022-10-31T15:05:27;20.55;;;7.03;;
37873;SDS011;23709;48.078;11.684;2022-10-31T15:07:59;26.48;;;8.00;;
37873;SDS011;23709;48.078;11.684;2022-10-31T15:10:32;14.43;;;7.18;;
37873;SDS011;23709;48.078;11.684;2022-10-31T15:13:18;19.10;;;7.57;;
37873;SDS011;23709;48.078;11.684;2022-10-31T15:15:53;16.50;;;6.40;;
37873;SDS011;23709;48.078;11.684;2022-10-31T15:18:27;19.25;;;6.97;;
37873;SDS011;23709;48.078;11.684;2022-10-31T15:21:00;18.70;;;7.53;;
37873;SDS011;23709;48.078;11.684;2022-10-31T15:23:40;31.33;;;8.80;;
37873;SDS011;23709;48.078;11.684;2022-10-31T15:26:20;19.13;;;7.53;;
37873;SDS011;23709;48.078;11.684;2022-10-31T15:29:01;24.10;;;6.97;;
37873;SDS011;23709;48.078;11.684;2022-10-31T15:31:36;24.10;;;7.65;;
37873;SDS011;23709;48.078;11.684;2022-10-31T15:34:14;20.10;;;7.15;;
37873;SDS011;23709;48.078;11.684;2022-10-31T15:36:51;20.55;;;7.75;;
37873;SDS011;23709;48.078;11.684;2022-10-31T15:39:24;24.30;;;8.10;;
37873;SDS011;23709;48.078;11.684;2022-10-31T15:41:56;21.70;;;7.53;;
37873;SDS011;23709;48.078;11.684;2022-10-31T15:44:34;21.83;;;7.57;;
37873;SDS011;23709;48.078;11.684;2022-10-31T15:47:18;23.50;;;8.35;;
37873;SDS011;23709;48.078;11.684;2022-10-31T15:49:53;22.50;;;7.72;;
37873;SDS011;23709;48.078;11.684;2022-10-31T15:52:38;17.33;;;7.32;;
37873;SDS011;23709;48.078;11.684;2022-10-31T15:55:19;17.38;;;6.93;;
37873;SDS011;23709;48.078;11.684;2022-10-31T15:58:09;17.48;;;7.57;;
37873;SDS011;23709;48.078;11.684;2022-10-31T16:00:44;16.63;;;6.28;;
37873;SDS011;23709;48.078;11.684;2022-10-31T16:06:18;19.73;;;6.85;;
37873;SDS011;23709;48.078;11.684;2022-10-31T16:08:51;14.90;;;7.22;;
37873;SDS011;23709;48.078;11.684;2022-10-31T16:11:27;19.25;;;8.15;;
37873;SDS011;23709;48.078;11.684;2022-10-31T16:14:20;23.77;;;7.45;;
37873;SDS011;23709;48.078;11.684;2022-10-31T16:16:57;16.98;;;8.13;;
37873;SDS011;23709;48.078;11.684;2022-10-31T16:19:34;21.55;;;8.50;;
37873;SDS011;23709;48.078;11.684;2022-10-31T16:22:11;15.50;;;7.32;;
37873;SDS011;23709;48.078;11.684;2022-10-31T16:24:46;24.25;;;8.18;;
37873;SDS011;23709;48.078;11.684;2022-10-31T16:27:33;33.22;;;9.75;;
37873;SDS011;23709;48.078;11.684;2022-10-31T16:39:07;213.90;;;141.95;;
37873;SDS011;23709;48.078;11.684;2022-10-31T16:41:40;965.42;;;683.67;;
37873;SDS011;23709;48.078;11.684;2022-10-31T16:44:18;576.05;;;459.63;;
37873;SDS011;23709;48.078;11.684;2022-10-31T16:47:07;142.77;;;88.28;;
37873;SDS011;23709;48.078;11.684;2022-10-31T16:49:47;218.50;;;146.25;;
37873;SDS011;23709;48.078;11.684;2022-10-31T16:52:21;75.80;;;45.20;;
37873;SDS011;23709;48.078;11.684;2022-10-31T16:54:53;99.80;;;56.13;;
37873;SDS011;23709;48.078;11.684;2022-10-31T16:57:26;328.30;;;222.73;;
37873;SDS011;23709;48.078;11.684;2022-10-31T17:00:00;82.82;;;48.63;;
37873;SDS011;23709;48.078;11.684;2022-10-31T17:02:33;112.90;;;70.80;;
37873;SDS011;23709;48.078;11.684;2022-10-31T17:05:05;40.80;;;19.83;;
37873;SDS011;23709;48.078;11.684;2022-10-31T17:07:40;792.53;;;582.03;;
37873;SDS011;23709;48.078;11.684;2022-10-31T17:10:13;804.88;;;608.97;;
37873;SDS011;23709;48.078;11.684;2022-10-31T17:12:46;680.47;;;505.88;;
37873;SDS011;23709;48.078;11.684;2022-10-31T17:17:57;80.57;;;48.45;;
37873;SDS011;23709;48.078;11.684;2022-10-31T17:20:30;890.80;;;645.22;;
37873;SDS011;23709;48.078;11.684;2022-10-31T17:23:02;146.10;;;87.82;;
37873;SDS011;23709;48.078;11.684;2022-10-31T17:25:35;24.33;;;10.60;;
37873;SDS011;23709;48.078;11.684;2022-10-31T17:28:10;34.13;;;15.00;;
37873;SDS011;23709;48.078;11.684;2022-10-31T17:30:44;415.65;;;289.85;;
37873;SDS011;23709;48.078;11.684;2022-10-31T17:33:16;396.80;;;273.92;;
37873;SDS011;23709;48.078;11.684;2022-10-31T17:35:48;317.13;;;208.82;;
37873;SDS011;23709;48.078;11.684;2022-10-31T17:38:21;412.90;;;277.02;;
37873;SDS011;23709;48.078;11.684;2022-10-31T17:40:53;351.48;;;234.57;;
37873;SDS011;23709;48.078;11.684;2022-10-31T17:43:25;135.50;;;81.35;;